Huntington, New York
Current Conditions -  °F | °C
As of 9:56 AM on Wednesday 26 Nov 2014 (Local Time) from KISP Reporting Station
Light Rain Light Rain  
Wind Chill:   Ceiling: 700
Heat Index:   Visibility: 1.5mi
Dew Point:   Wind: 10mph
Humidity: 86%   Direction: 10°N
Pressure: 30.11"   Gusts: NA
Location:  40.87°N, 73.42°W
Report Text: KISP 261456Z 01009KT 1 1/2SM -RA BR BKN007 BKN013 OVC033 04/02 A3011 RMK AO2 SFC VIS 2 SLP195 P0011 60017 T00440022 55004
Loading
Personal Weather Stations






























Interactive Weather Map New forecast layout! Learn more

10-Day Weather Forecast

Advertisements
Track Severe Weather on mobile